Portada
METAR-TAF:

METAR-TAF

Aeroports :

Antananarivo, Madagascar

latitud: 18-48S, longitud: 047-29E, altitud: 1279 m

Observació

L'informe es va fer fa 5 minuts, a les 01:00 UTC
Vent 4 kt del Nord-Oest
Temperatura 19°C
Humitat 94%
Pressió 1014 hPa
Visibilitat 10 km o més
Escasses núvols a una alçada de 1700 ft
Cel ennuvolat a una alçada de 2000 ft

METAR: FMMI 200100Z 32004KT 9999 FEW017 BKN020 19/18 Q1014 NOSIG

Hora: 04:05 (01:05 UTC)

Pronòstic

L'informe es va fer fa 2 hores i 5 minuts, a les 23:00 UTC
Pronòstic vàlid del 20 a les 00 UTC al 21 a les 06 UTC
Vent 8 kt del Oest/Nord-Oest
Visibilitat 10 km o més
Núvols disperses a una alçada de 1700 ft
Núvols disperses a una alçada de 2000 ft
Probabilitat 40% :
Temporalment
l' 20 a les 14 UTC al 20 a les 21 UTC
Visibilitat: 4000 m
Cel ennuvolat a una alçada de 1500 ft, Cumulonimbus.
tempesta, pluja

TAF: FMMI 192300Z 2000/2106 30008KT 9999 SCT017 SCT020 PROB40 TEMPO 2014/2021 4000 TSRA BKN015CB

Observacions i pronòstics meteorològics de més de 4000 aeroports (METAR i TAF).

Les estacions disponibles són els punts grocs i vermells al mapa.

Posi el ratolí al punt desitjat per veure el nom de l'estació.

Feu clic per veure les observacions i els pronòstics meteorològics.

Per canviar el mapa: feu clic els botons verds amb una creu de color negre per apropar; al botó verd amb un guió per allunyar la imatge; o en les fletxes verdes per a mapes adjacents.


METAR-TAF: